sensor_id;sensor_type;location;lat;lon;timestamp;pressure;altitude;pressure_sealevel;temperature;humidity
31239;BME280;17871;31.584;74.450;2023-03-23T00:02:05;98231.34;;;21.70;82.92
31239;BME280;17871;31.584;74.450;2023-03-23T00:04:32;98239.22;;;21.69;82.85
31239;BME280;17871;31.584;74.450;2023-03-23T00:06:59;98232.28;;;21.69;82.63
31239;BME280;17871;31.584;74.450;2023-03-23T00:09:29;98228.88;;;21.67;82.64
31239;BME280;17871;31.584;74.450;2023-03-23T00:12:01;98236.63;;;21.69;82.59
31239;BME280;17871;31.584;74.450;2023-03-23T00:14:32;98238.50;;;21.65;83.16
31239;BME280;17871;31.584;74.450;2023-03-23T00:17:08;98237.59;;;21.66;82.80
31239;BME280;17871;31.584;74.450;2023-03-23T00:19:41;98240.34;;;21.63;82.94
31239;BME280;17871;31.584;74.450;2023-03-23T00:22:15;98239.34;;;21.66;83.13
31239;BME280;17871;31.584;74.450;2023-03-23T00:24:43;98248.06;;;21.65;83.11
31239;BME280;17871;31.584;74.450;2023-03-23T00:27:10;98263.63;;;21.66;82.90
31239;BME280;17871;31.584;74.450;2023-03-23T00:29:41;98256.75;;;21.64;83.17
31239;BME280;17871;31.584;74.450;2023-03-23T00:32:13;98248.13;;;21.63;83.35
31239;BME280;17871;31.584;74.450;2023-03-23T00:34:41;98249.06;;;21.61;83.17
31239;BME280;17871;31.584;74.450;2023-03-23T00:37:10;98244.81;;;21.60;83.43
31239;BME280;17871;31.584;74.450;2023-03-23T00:39:38;98249.94;;;21.61;83.28
31239;BME280;17871;31.584;74.450;2023-03-23T00:42:14;98250.81;;;21.60;83.32
31239;BME280;17871;31.584;74.450;2023-03-23T00:44:43;98247.34;;;21.61;83.53
31239;BME280;17871;31.584;74.450;2023-03-23T00:47:11;98250.75;;;21.63;83.53
31239;BME280;17871;31.584;74.450;2023-03-23T00:49:39;98255.94;;;21.63;83.55
31239;BME280;17871;31.584;74.450;2023-03-23T00:52:07;98255.84;;;21.65;83.28
31239;BME280;17871;31.584;74.450;2023-03-23T00:54:35;98255.94;;;21.63;83.03
31239;BME280;17871;31.584;74.450;2023-03-23T00:57:04;98261.91;;;21.65;83.12
31239;BME280;17871;31.584;74.450;2023-03-23T00:59:33;98266.22;;;21.66;82.90
31239;BME280;17871;31.584;74.450;2023-03-23T01:02:00;98267.84;;;21.69;82.80
31239;BME280;17871;31.584;74.450;2023-03-23T01:04:28;98270.44;;;21.69;82.81
31239;BME280;17871;31.584;74.450;2023-03-23T01:06:59;98268.00;;;21.64;82.86
31239;BME280;17871;31.584;74.450;2023-03-23T01:09:28;98271.41;;;21.66;82.91
31239;BME280;17871;31.584;74.450;2023-03-23T01:11:56;98275.81;;;21.64;83.15
31239;BME280;17871;31.584;74.450;2023-03-23T01:14:24;98281.13;;;21.61;83.31
31239;BME280;17871;31.584;74.450;2023-03-23T01:16:53;98281.81;;;21.66;82.90
31239;BME280;17871;31.584;74.450;2023-03-23T01:19:21;98280.00;;;21.68;82.61
31239;BME280;17871;31.584;74.450;2023-03-23T01:21:49;98278.28;;;21.67;82.75
31239;BME280;17871;31.584;74.450;2023-03-23T01:24:17;98277.28;;;21.71;82.71
31239;BME280;17871;31.584;74.450;2023-03-23T01:26:45;98290.97;;;21.77;82.51
31239;BME280;17871;31.584;74.450;2023-03-23T01:29:13;98291.59;;;21.82;82.70
31239;BME280;17871;31.584;74.450;2023-03-23T01:31:42;98288.03;;;21.84;82.06
31239;BME280;17871;31.584;74.450;2023-03-23T01:34:10;98282.66;;;21.89;82.12
31239;BME280;17871;31.584;74.450;2023-03-23T01:36:38;98287.78;;;21.92;82.33
31239;BME280;17871;31.584;74.450;2023-03-23T01:39:06;98296.47;;;21.91;82.36
31239;BME280;17871;31.584;74.450;2023-03-23T01:41:35;98305.84;;;21.95;82.19
31239;BME280;17871;31.584;74.450;2023-03-23T01:45:17;98309.91;;;22.02;81.85
31239;BME280;17871;31.584;74.450;2023-03-23T01:47:00;98311.63;;;22.03;82.17
31239;BME280;17871;31.584;74.450;2023-03-23T01:49:34;98323.09;;;22.19;81.54
31239;BME280;17871;31.584;74.450;2023-03-23T01:52:08;98328.09;;;22.23;81.42
31239;BME280;17871;31.584;74.450;2023-03-23T01:54:39;98319.44;;;22.23;81.31
31239;BME280;17871;31.584;74.450;2023-03-23T01:57:15;98327.66;;;22.34;81.45
31239;BME280;17871;31.584;74.450;2023-03-23T01:59:47;98326.50;;;22.41;81.43
31239;BME280;17871;31.584;74.450;2023-03-23T02:02:22;98326.91;;;22.52;80.66
31239;BME280;17871;31.584;74.450;2023-03-23T02:04:51;98329.75;;;22.68;80.78
31239;BME280;17871;31.584;74.450;2023-03-23T02:07:23;98334.88;;;22.69;80.81
31239;BME280;17871;31.584;74.450;2023-03-23T02:09:52;98338.03;;;22.78;80.13
31239;BME280;17871;31.584;74.450;2023-03-23T02:12:20;98350.59;;;22.88;79.82
31239;BME280;17871;31.584;74.450;2023-03-23T02:14:50;98355.22;;;23.02;79.22
31239;BME280;17871;31.584;74.450;2023-03-23T02:17:29;98352.53;;;23.03;78.98
31239;BME280;17871;31.584;74.450;2023-03-23T02:26:11;98374.84;;;23.49;77.93
31239;BME280;17871;31.584;74.450;2023-03-23T02:34:56;98391.56;;;23.64;77.32
31239;BME280;17871;31.584;74.450;2023-03-23T02:40:48;98404.91;;;23.76;76.75
31239;BME280;17871;31.584;74.450;2023-03-23T02:43:21;98411.25;;;23.71;76.92
31239;BME280;17871;31.584;74.450;2023-03-23T02:45:52;98401.44;;;23.95;76.48
31239;BME280;17871;31.584;74.450;2023-03-23T02:48:25;98402.63;;;23.88;76.14
31239;BME280;17871;31.584;74.450;2023-03-23T02:50:56;98405.38;;;23.85;77.03
31239;BME280;17871;31.584;74.450;2023-03-23T02:53:26;98406.91;;;24.07;76.65
31239;BME280;17871;31.584;74.450;2023-03-23T02:55:57;98410.91;;;23.97;76.54
31239;BME280;17871;31.584;74.450;2023-03-23T02:58:28;98412.50;;;24.00;75.39
31239;BME280;17871;31.584;74.450;2023-03-23T03:00:58;98421.75;;;24.07;74.40
31239;BME280;17871;31.584;74.450;2023-03-23T03:03:29;98431.72;;;24.36;73.88
31239;BME280;17871;31.584;74.450;2023-03-23T03:06:14;98427.44;;;24.52;73.33
31239;BME280;17871;31.584;74.450;2023-03-23T03:08:51;98433.22;;;24.59;71.51
31239;BME280;17871;31.584;74.450;2023-03-23T03:11:21;98443.13;;;24.52;70.39
31239;BME280;17871;31.584;74.450;2023-03-23T03:14:07;98444.38;;;24.62;69.38
31239;BME280;17871;31.584;74.450;2023-03-23T03:17:06;98445.59;;;24.72;69.09
31239;BME280;17871;31.584;74.450;2023-03-23T03:19:42;98453.50;;;24.71;68.98
31239;BME280;17871;31.584;74.450;2023-03-23T03:22:14;98461.59;;;24.66;69.41
31239;BME280;17871;31.584;74.450;2023-03-23T03:24:43;98456.78;;;24.40;70.51
31239;BME280;17871;31.584;74.450;2023-03-23T03:27:16;98465.59;;;24.19;71.92
31239;BME280;17871;31.584;74.450;2023-03-23T03:29:51;98472.44;;;24.40;71.80
31239;BME280;17871;31.584;74.450;2023-03-23T03:32:31;98468.13;;;24.20;71.98
31239;BME280;17871;31.584;74.450;2023-03-23T03:35:04;98473.25;;;23.85;73.18
31239;BME280;17871;31.584;74.450;2023-03-23T03:37:36;98482.34;;;23.76;73.81
31239;BME280;17871;31.584;74.450;2023-03-23T03:40:14;98488.81;;;23.67;75.17
31239;BME280;17871;31.584;74.450;2023-03-23T03:42:44;98489.63;;;23.49;76.11
31239;BME280;17871;31.584;74.450;2023-03-23T03:45:16;98495.53;;;23.53;76.15
31239;BME280;17871;31.584;74.450;2023-03-23T03:47:44;98502.56;;;23.10;78.02
31239;BME280;17871;31.584;74.450;2023-03-23T03:50:12;98504.00;;;23.17;77.71
31239;BME280;17871;31.584;74.450;2023-03-23T03:52:40;98510.28;;;23.12;77.54
31239;BME280;17871;31.584;74.450;2023-03-23T03:55:08;98507.78;;;23.10;78.43
31239;BME280;17871;31.584;74.450;2023-03-23T03:57:40;98515.59;;;23.10;78.47
31239;BME280;17871;31.584;74.450;2023-03-23T04:00:37;98519.66;;;23.17;77.21
31239;BME280;17871;31.584;74.450;2023-03-23T04:03:06;98522.94;;;23.01;76.26
31239;BME280;17871;31.584;74.450;2023-03-23T04:05:46;98530.72;;;22.81;75.78
31239;BME280;17871;31.584;74.450;2023-03-23T04:08:14;98525.25;;;22.87;75.49
31239;BME280;17871;31.584;74.450;2023-03-23T04:10:42;98529.97;;;22.77;72.41
31239;BME280;17871;31.584;74.450;2023-03-23T04:13:10;98521.78;;;22.86;71.66
31239;BME280;17871;31.584;74.450;2023-03-23T04:15:40;98531.69;;;22.78;71.11
31239;BME280;17871;31.584;74.450;2023-03-23T04:18:08;98523.03;;;23.19;69.99
31239;BME280;17871;31.584;74.450;2023-03-23T04:20:36;98523.06;;;22.98;70.13
31239;BME280;17871;31.584;74.450;2023-03-23T04:23:04;98523.66;;;23.46;68.15
31239;BME280;17871;31.584;74.450;2023-03-23T04:25:34;98535.22;;;23.39;68.21
31239;BME280;17871;31.584;74.450;2023-03-23T04:28:04;98533.91;;;23.29;67.96
31239;BME280;17871;31.584;74.450;2023-03-23T04:30:38;98531.34;;;23.49;67.65
31239;BME280;17871;31.584;74.450;2023-03-23T04:33:12;98541.25;;;23.61;65.47
31239;BME280;17871;31.584;74.450;2023-03-23T04:35:46;98542.31;;;23.57;65.22
31239;BME280;17871;31.584;74.450;2023-03-23T04:38:33;98539.44;;;23.63;65.77
31239;BME280;17871;31.584;74.450;2023-03-23T04:41:09;98535.13;;;23.62;65.78
31239;BME280;17871;31.584;74.450;2023-03-23T04:43:53;98540.91;;;23.89;65.67
31239;BME280;17871;31.584;74.450;2023-03-23T04:46:26;98530.03;;;23.80;65.52
31239;BME280;17871;31.584;74.450;2023-03-23T04:48:59;98517.41;;;23.70;65.48
31239;BME280;17871;31.584;74.450;2023-03-23T04:51:31;98513.84;;;23.71;65.56
31239;BME280;17871;31.584;74.450;2023-03-23T04:54:11;98520.50;;;23.78;65.23
31239;BME280;17871;31.584;74.450;2023-03-23T04:56:42;98529.19;;;23.98;65.09
31239;BME280;17871;31.584;74.450;2023-03-23T04:59:14;98536.88;;;23.62;65.31
31239;BME280;17871;31.584;74.450;2023-03-23T05:01:51;98541.59;;;23.32;65.38
31239;BME280;17871;31.584;74.450;2023-03-23T05:04:20;98540.13;;;23.26;66.46
31239;BME280;17871;31.584;74.450;2023-03-23T05:07:01;98537.06;;;23.37;67.02
31239;BME280;17871;31.584;74.450;2023-03-23T05:09:31;98529.34;;;23.95;65.89
31239;BME280;17871;31.584;74.450;2023-03-23T05:12:04;98548.03;;;23.45;66.60
31239;BME280;17871;31.584;74.450;2023-03-23T05:14:35;98532.59;;;23.41;67.23
31239;BME280;17871;31.584;74.450;2023-03-23T05:17:09;98531.03;;;23.35;67.18
31239;BME280;17871;31.584;74.450;2023-03-23T05:19:36;98522.38;;;23.75;66.90
31239;BME280;17871;31.584;74.450;2023-03-23T05:22:18;98515.66;;;24.08;66.37
31239;BME280;17871;31.584;74.450;2023-03-23T05:24:50;98516.28;;;24.15;65.57
31239;BME280;17871;31.584;74.450;2023-03-23T05:27:19;98517.97;;;24.16;65.20
31239;BME280;17871;31.584;74.450;2023-03-23T05:29:48;98505.69;;;24.18;65.26
31239;BME280;17871;31.584;74.450;2023-03-23T05:32:16;98517.69;;;24.41;64.81
31239;BME280;17871;31.584;74.450;2023-03-23T05:34:47;98516.00;;;24.40;64.78
31239;BME280;17871;31.584;74.450;2023-03-23T05:37:15;98517.25;;;24.31;64.54
31239;BME280;17871;31.584;74.450;2023-03-23T05:39:46;98514.28;;;24.57;64.08
31239;BME280;17871;31.584;74.450;2023-03-23T05:42:33;98500.00;;;24.64;63.96
31239;BME280;17871;31.584;74.450;2023-03-23T05:45:09;98510.59;;;24.61;63.82
31239;BME280;17871;31.584;74.450;2023-03-23T05:47:40;98509.06;;;24.93;63.14
31239;BME280;17871;31.584;74.450;2023-03-23T05:50:15;98511.72;;;25.27;63.09
31239;BME280;17871;31.584;74.450;2023-03-23T05:52:44;98510.44;;;25.19;62.29
31239;BME280;17871;31.584;74.450;2023-03-23T05:55:13;98512.94;;;25.20;62.50
31239;BME280;17871;31.584;74.450;2023-03-23T05:57:47;98512.41;;;25.48;62.54
31239;BME280;17871;31.584;74.450;2023-03-23T06:00:25;98508.50;;;25.22;62.19
31239;BME280;17871;31.584;74.450;2023-03-23T06:03:06;98518.25;;;25.02;62.14
31239;BME280;17871;31.584;74.450;2023-03-23T06:05:46;98505.09;;;25.03;62.20
31239;BME280;17871;31.584;74.450;2023-03-23T06:08:17;98499.03;;;25.37;61.96
31239;BME280;17871;31.584;74.450;2023-03-23T06:10:45;98499.91;;;25.55;61.16
31239;BME280;17871;31.584;74.450;2023-03-23T06:13:14;98490.88;;;25.93;60.26
31239;BME280;17871;31.584;74.450;2023-03-23T06:15:47;98505.06;;;25.72;60.07
31239;BME280;17871;31.584;74.450;2023-03-23T06:18:22;98497.44;;;25.85;60.22
31239;BME280;17871;31.584;74.450;2023-03-23T06:21:12;98498.88;;;25.23;61.73
31239;BME280;17871;31.584;74.450;2023-03-23T06:23:58;98482.63;;;26.01;60.99
31239;BME280;17871;31.584;74.450;2023-03-23T06:26:35;98491.94;;;25.89;60.35
31239;BME280;17871;31.584;74.450;2023-03-23T06:29:06;98478.94;;;26.36;59.47
31239;BME280;17871;31.584;74.450;2023-03-23T06:31:45;98478.78;;;26.39;59.07
31239;BME280;17871;31.584;74.450;2023-03-23T06:34:14;98485.53;;;26.43;59.30
31239;BME280;17871;31.584;74.450;2023-03-23T06:37:00;98482.47;;;26.82;58.48
31239;BME280;17871;31.584;74.450;2023-03-23T06:39:36;98480.78;;;26.65;58.66
31239;BME280;17871;31.584;74.450;2023-03-23T06:42:36;98478.13;;;27.41;57.83
31239;BME280;17871;31.584;74.450;2023-03-23T06:45:35;98486.09;;;27.69;56.77
31239;BME280;17871;31.584;74.450;2023-03-23T06:48:21;98480.00;;;27.68;56.18
31239;BME280;17871;31.584;74.450;2023-03-23T06:50:48;98480.28;;;27.20;57.83
31239;BME280;17871;31.584;74.450;2023-03-23T06:53:18;98486.94;;;27.55;57.34
31239;BME280;17871;31.584;74.450;2023-03-23T06:55:48;98479.63;;;26.24;59.43
31239;BME280;17871;31.584;74.450;2023-03-23T06:58:16;98474.44;;;26.69;59.11
31239;BME280;17871;31.584;74.450;2023-03-23T07:00:43;98467.34;;;26.56;57.95
31239;BME280;17871;31.584;74.450;2023-03-23T07:03:15;98469.72;;;26.29;59.45
31239;BME280;17871;31.584;74.450;2023-03-23T07:05:46;98466.69;;;26.98;57.99
31239;BME280;17871;31.584;74.450;2023-03-23T07:08:17;98472.44;;;26.43;59.24
31239;BME280;17871;31.584;74.450;2023-03-23T07:10:52;98472.69;;;26.23;60.08
31239;BME280;17871;31.584;74.450;2023-03-23T07:13:25;98461.50;;;26.35;59.77
31239;BME280;17871;31.584;74.450;2023-03-23T07:15:58;98467.28;;;26.57;59.62
31239;BME280;17871;31.584;74.450;2023-03-23T07:18:26;98462.06;;;26.71;59.46
31239;BME280;17871;31.584;74.450;2023-03-23T07:20:57;98463.50;;;25.99;61.04
31239;BME280;17871;31.584;74.450;2023-03-23T07:23:30;98457.44;;;26.76;59.96
31239;BME280;17871;31.584;74.450;2023-03-23T07:26:02;98448.59;;;27.37;59.12
31239;BME280;17871;31.584;74.450;2023-03-23T07:28:36;98453.25;;;27.18;59.38
31239;BME280;17871;31.584;74.450;2023-03-23T07:31:27;98450.44;;;27.51;58.06
31239;BME280;17871;31.584;74.450;2023-03-23T07:33:56;98449.03;;;27.45;58.04
31239;BME280;17871;31.584;74.450;2023-03-23T07:36:30;98451.22;;;26.77;59.70
31239;BME280;17871;31.584;74.450;2023-03-23T07:38:59;98446.31;;;27.03;57.73
31239;BME280;17871;31.584;74.450;2023-03-23T07:41:26;98441.66;;;27.22;57.54
31239;BME280;17871;31.584;74.450;2023-03-23T07:43:55;98448.22;;;26.69;58.97
31239;BME280;17871;31.584;74.450;2023-03-23T07:46:31;98440.09;;;26.90;59.76
31239;BME280;17871;31.584;74.450;2023-03-23T07:49:14;98435.66;;;27.20;57.80
31239;BME280;17871;31.584;74.450;2023-03-23T07:51:48;98434.38;;;27.41;57.37
31239;BME280;17871;31.584;74.450;2023-03-23T07:54:16;98432.50;;;27.43;57.47
31239;BME280;17871;31.584;74.450;2023-03-23T07:56:52;98432.81;;;27.67;56.61
31239;BME280;17871;31.584;74.450;2023-03-23T07:59:30;98432.72;;;27.68;56.36
31239;BME280;17871;31.584;74.450;2023-03-23T08:01:58;98426.31;;;28.01;55.88
31239;BME280;17871;31.584;74.450;2023-03-23T08:04:58;98421.66;;;27.49;57.27
31239;BME280;17871;31.584;74.450;2023-03-23T08:07:33;98427.09;;;27.89;55.66
31239;BME280;17871;31.584;74.450;2023-03-23T08:10:29;98419.47;;;27.98;55.72
31239;BME280;17871;31.584;74.450;2023-03-23T08:13:22;98402.47;;;28.18;55.64
31239;BME280;17871;31.584;74.450;2023-03-23T08:16:10;98402.13;;;27.96;56.74
31239;BME280;17871;31.584;74.450;2023-03-23T08:19:00;98398.59;;;27.82;55.75
31239;BME280;17871;31.584;74.450;2023-03-23T08:21:46;98400.03;;;28.15;55.45
31239;BME280;17871;31.584;74.450;2023-03-23T08:24:22;98392.75;;;27.92;55.95
31239;BME280;17871;31.584;74.450;2023-03-23T08:27:01;98396.34;;;28.31;56.10
31239;BME280;17871;31.584;74.450;2023-03-23T08:30:04;98385.19;;;28.00;56.54
31239;BME280;17871;31.584;74.450;2023-03-23T08:32:52;98387.56;;;28.18;56.21
31239;BME280;17871;31.584;74.450;2023-03-23T08:35:41;98368.34;;;27.90;56.88
31239;BME280;17871;31.584;74.450;2023-03-23T08:38:39;98366.53;;;28.45;56.73
31239;BME280;17871;31.584;74.450;2023-03-23T08:41:26;98362.66;;;28.63;55.43
31239;BME280;17871;31.584;74.450;2023-03-23T08:44:19;98357.31;;;28.65;54.96
31239;BME280;17871;31.584;74.450;2023-03-23T08:47:03;98357.78;;;28.71;55.65
31239;BME280;17871;31.584;74.450;2023-03-23T08:49:51;98342.84;;;28.45;54.82
31239;BME280;17871;31.584;74.450;2023-03-23T08:52:49;98339.19;;;28.48;55.78
31239;BME280;17871;31.584;74.450;2023-03-23T08:55:34;98329.16;;;28.67;55.29
31239;BME280;17871;31.584;74.450;2023-03-23T08:58:26;98322.75;;;28.44;54.87
31239;BME280;17871;31.584;74.450;2023-03-23T09:01:08;98324.53;;;28.96;54.01
31239;BME280;17871;31.584;74.450;2023-03-23T09:03:43;98323.16;;;28.77;54.21
31239;BME280;17871;31.584;74.450;2023-03-23T09:06:29;98320.53;;;28.77;54.45
31239;BME280;17871;31.584;74.450;2023-03-23T09:08:56;98313.28;;;28.94;53.81
31239;BME280;17871;31.584;74.450;2023-03-23T09:11:25;98310.66;;;28.94;54.44
31239;BME280;17871;31.584;74.450;2023-03-23T09:13:52;98310.44;;;29.09;54.23
31239;BME280;17871;31.584;74.450;2023-03-23T09:16:19;98310.22;;;29.25;54.39
31239;BME280;17871;31.584;74.450;2023-03-23T09:18:47;98304.31;;;28.83;54.52
31239;BME280;17871;31.584;74.450;2023-03-23T09:21:16;98307.69;;;28.98;53.76
31239;BME280;17871;31.584;74.450;2023-03-23T09:23:44;98304.31;;;28.96;53.85
31239;BME280;17871;31.584;74.450;2023-03-23T09:26:12;98298.00;;;28.99;53.46
31239;BME280;17871;31.584;74.450;2023-03-23T09:28:39;98301.78;;;28.69;53.27
31239;BME280;17871;31.584;74.450;2023-03-23T09:31:06;98288.88;;;28.52;53.79
31239;BME280;17871;31.584;74.450;2023-03-23T09:33:36;98287.91;;;28.80;54.46
31239;BME280;17871;31.584;74.450;2023-03-23T09:36:06;98286.22;;;28.79;53.76
31239;BME280;17871;31.584;74.450;2023-03-23T09:38:35;98286.94;;;28.68;54.32
31239;BME280;17871;31.584;74.450;2023-03-23T09:43:59;98266.00;;;28.79;53.51
31239;BME280;17871;31.584;74.450;2023-03-23T09:46:35;98265.16;;;28.79;53.56
31239;BME280;17871;31.584;74.450;2023-03-23T09:49:23;98260.31;;;28.85;52.96
31239;BME280;17871;31.584;74.450;2023-03-23T09:52:15;98261.59;;;28.67;52.44
31239;BME280;17871;31.584;74.450;2023-03-23T09:54:45;98251.72;;;28.83;52.35
31239;BME280;17871;31.584;74.450;2023-03-23T09:57:27;98245.69;;;29.07;52.44
31239;BME280;17871;31.584;74.450;2023-03-23T10:00:02;98239.91;;;29.27;52.16
31239;BME280;17871;31.584;74.450;2023-03-23T10:05:30;98229.63;;;28.73;52.90
31239;BME280;17871;31.584;74.450;2023-03-23T10:08:00;98231.16;;;28.63;51.87
31239;BME280;17871;31.584;74.450;2023-03-23T10:16:40;98223.50;;;28.60;52.66
31239;BME280;17871;31.584;74.450;2023-03-23T10:19:15;98231.19;;;28.89;52.39
31239;BME280;17871;31.584;74.450;2023-03-23T10:21:49;98222.66;;;28.72;51.62
31239;BME280;17871;31.584;74.450;2023-03-23T10:24:23;98225.72;;;28.79;52.14
31239;BME280;17871;31.584;74.450;2023-03-23T10:27:07;98216.88;;;28.80;51.82
31239;BME280;17871;31.584;74.450;2023-03-23T10:29:46;98224.44;;;28.72;52.48
31239;BME280;17871;31.584;74.450;2023-03-23T10:32:21;98223.47;;;28.35;53.48
31239;BME280;17871;31.584;74.450;2023-03-23T10:34:54;98227.25;;;28.31;52.84
31239;BME280;17871;31.584;74.450;2023-03-23T10:37:29;98227.34;;;28.29;52.99
31239;BME280;17871;31.584;74.450;2023-03-23T10:40:00;98220.44;;;28.41;53.49
31239;BME280;17871;31.584;74.450;2023-03-23T10:42:34;98214.97;;;28.44;52.47
31239;BME280;17871;31.584;74.450;2023-03-23T10:45:19;98225.78;;;28.52;53.12
31239;BME280;17871;31.584;74.450;2023-03-23T10:47:55;98212.00;;;28.49;52.10
31239;BME280;17871;31.584;74.450;2023-03-23T10:50:30;98210.44;;;28.59;51.66
31239;BME280;17871;31.584;74.450;2023-03-23T10:53:00;98208.78;;;28.58;50.55
31239;BME280;17871;31.584;74.450;2023-03-23T10:55:39;98210.34;;;28.48;51.16
31239;BME280;17871;31.584;74.450;2023-03-23T10:58:12;98201.91;;;28.55;50.14
31239;BME280;17871;31.584;74.450;2023-03-23T11:00:47;98214.53;;;28.50;48.03
31239;BME280;17871;31.584;74.450;2023-03-23T11:05:49;98202.13;;;28.52;48.94
31239;BME280;17871;31.584;74.450;2023-03-23T11:08:23;98201.81;;;28.19;50.14
31239;BME280;17871;31.584;74.450;2023-03-23T11:10:57;98200.63;;;28.23;51.01
31239;BME280;17871;31.584;74.450;2023-03-23T11:13:32;98191.59;;;28.52;50.38
31239;BME280;17871;31.584;74.450;2023-03-23T11:16:00;98187.72;;;28.45;51.33
31239;BME280;17871;31.584;74.450;2023-03-23T11:18:47;98193.50;;;28.50;50.33
31239;BME280;17871;31.584;74.450;2023-03-23T11:21:15;98188.53;;;28.20;50.25
31239;BME280;17871;31.584;74.450;2023-03-23T11:23:48;98185.63;;;28.50;48.87
31239;BME280;17871;31.584;74.450;2023-03-23T11:26:26;98189.59;;;28.56;49.51
31239;BME280;17871;31.584;74.450;2023-03-23T11:31:33;98185.09;;;27.93;50.54
31239;BME280;17871;31.584;74.450;2023-03-23T11:36:41;98181.63;;;28.45;49.28
31239;BME280;17871;31.584;74.450;2023-03-23T11:39:25;98180.03;;;28.17;50.70
31239;BME280;17871;31.584;74.450;2023-03-23T11:41:56;98178.66;;;28.24;50.62
31239;BME280;17871;31.584;74.450;2023-03-23T11:44:31;98177.53;;;28.41;50.15
31239;BME280;17871;31.584;74.450;2023-03-23T11:49:57;98169.84;;;28.25;50.90
31239;BME280;17871;31.584;74.450;2023-03-23T11:55:23;98180.06;;;28.03;50.58
31239;BME280;17871;31.584;74.450;2023-03-23T11:57:53;98172.56;;;28.11;50.03
31239;BME280;17871;31.584;74.450;2023-03-23T12:00:23;98168.47;;;27.93;50.06
31239;BME280;17871;31.584;74.450;2023-03-23T12:02:59;98171.97;;;27.93;50.53
31239;BME280;17871;31.584;74.450;2023-03-23T12:08:20;98178.81;;;27.96;51.16
31239;BME280;17871;31.584;74.450;2023-03-23T12:19:06;98181.63;;;27.93;50.48
31239;BME280;17871;31.584;74.450;2023-03-23T12:21:52;98171.72;;;28.10;50.75
31239;BME280;17871;31.584;74.450;2023-03-23T12:30:14;98167.69;;;27.65;52.48
31239;BME280;17871;31.584;74.450;2023-03-23T12:38:12;98176.56;;;27.50;53.45
31239;BME280;17871;31.584;74.450;2023-03-23T12:41:14;98172.09;;;27.24;54.14
31239;BME280;17871;31.584;74.450;2023-03-23T12:44:03;98172.56;;;27.45;53.59
31239;BME280;17871;31.584;74.450;2023-03-23T12:46:42;98178.69;;;27.17;54.16
31239;BME280;17871;31.584;74.450;2023-03-23T12:54:52;98187.38;;;27.31;53.90
31239;BME280;17871;31.584;74.450;2023-03-23T13:03:41;98189.75;;;27.08;54.56
31239;BME280;17871;31.584;74.450;2023-03-23T13:11:34;98181.91;;;26.79;55.59
31239;BME280;17871;31.584;74.450;2023-03-23T13:17:30;98175.06;;;27.05;55.39
31239;BME280;17871;31.584;74.450;2023-03-23T13:23:14;98182.09;;;26.91;56.03
31239;BME280;17871;31.584;74.450;2023-03-23T13:31:34;98182.94;;;26.63;57.59
31239;BME280;17871;31.584;74.450;2023-03-23T13:34:05;98181.72;;;26.68;57.71
31239;BME280;17871;31.584;74.450;2023-03-23T13:36:40;98176.47;;;26.68;57.50
31239;BME280;17871;31.584;74.450;2023-03-23T13:39:27;98173.09;;;26.52;58.27
31239;BME280;17871;31.584;74.450;2023-03-23T13:50:09;98182.56;;;26.41;58.20
31239;BME280;17871;31.584;74.450;2023-03-23T14:05:49;98191.25;;;26.27;60.22
31239;BME280;17871;31.584;74.450;2023-03-23T14:08:39;98206.34;;;25.92;61.66
31239;BME280;17871;31.584;74.450;2023-03-23T14:11:25;98208.97;;;25.92;61.59
31239;BME280;17871;31.584;74.450;2023-03-23T14:14:05;98215.22;;;25.90;61.60
31239;BME280;17871;31.584;74.450;2023-03-23T14:16:44;98217.91;;;26.04;61.35
31239;BME280;17871;31.584;74.450;2023-03-23T14:19:27;98213.59;;;26.03;61.33
31239;BME280;17871;31.584;74.450;2023-03-23T14:22:00;98218.47;;;26.09;60.91
31239;BME280;17871;31.584;74.450;2023-03-23T14:24:33;98217.72;;;26.07;61.02
31239;BME280;17871;31.584;74.450;2023-03-23T14:27:16;98213.78;;;26.00;61.13
31239;BME280;17871;31.584;74.450;2023-03-23T14:29:44;98214.06;;;25.79;61.63
31239;BME280;17871;31.584;74.450;2023-03-23T14:32:18;98213.09;;;25.96;61.33
31239;BME280;17871;31.584;74.450;2023-03-23T14:34:53;98208.59;;;25.84;61.32
31239;BME280;17871;31.584;74.450;2023-03-23T14:37:21;98213.31;;;25.77;61.56
31239;BME280;17871;31.584;74.450;2023-03-23T14:39:54;98215.75;;;25.80;61.88
31239;BME280;17871;31.584;74.450;2023-03-23T14:42:29;98224.47;;;25.81;61.81
31239;BME280;17871;31.584;74.450;2023-03-23T14:44:58;98225.81;;;25.72;62.28
31239;BME280;17871;31.584;74.450;2023-03-23T14:47:40;98230.16;;;25.58;62.53
31239;BME280;17871;31.584;74.450;2023-03-23T14:52:50;98238.91;;;25.41;63.01
31239;BME280;17871;31.584;74.450;2023-03-23T14:55:22;98240.03;;;25.68;62.39
31239;BME280;17871;31.584;74.450;2023-03-23T14:57:50;98230.84;;;25.61;62.50
31239;BME280;17871;31.584;74.450;2023-03-23T15:00:24;98238.19;;;25.55;62.93
31239;BME280;17871;31.584;74.450;2023-03-23T15:02:56;98232.41;;;25.48;63.09
31239;BME280;17871;31.584;74.450;2023-03-23T15:05:32;98230.56;;;25.50;63.30
31239;BME280;17871;31.584;74.450;2023-03-23T15:08:24;98237.50;;;25.51;63.23
31239;BME280;17871;31.584;74.450;2023-03-23T15:11:23;98231.75;;;25.60;63.06
31239;BME280;17871;31.584;74.450;2023-03-23T15:13:54;98225.84;;;25.25;63.97
31239;BME280;17871;31.584;74.450;2023-03-23T15:16:27;98220.16;;;25.33;64.20
31239;BME280;17871;31.584;74.450;2023-03-23T15:21:45;98233.91;;;25.05;65.19
31239;BME280;17871;31.584;74.450;2023-03-23T15:24:40;98228.19;;;25.30;64.51
31239;BME280;17871;31.584;74.450;2023-03-23T15:29:48;98239.13;;;25.05;65.04
31239;BME280;17871;31.584;74.450;2023-03-23T15:32:38;98237.13;;;25.26;64.33